Time;durP1;ratioP1;P1;durP2;ratioP2;P2;SDS_P1;SDS_P2;PMS_P1;PMS_P2;Temp;Humidity;BMP_temperature;BMP_pressure;BME280_temperature;BME280_humidity;BME280_pressure;Samples;Min_cycle;Max_cycle;Signal;HPM_P1;HPM_P2
2023/10/08 00:01:14;;;;;;;;;;;;;;;15.73;100.00;102162.19;5114764;28;19965;-50
2023/10/08 00:03:40;;;;;;;;;;;;;;;15.69;100.00;102157.75;5115184;28;19915;-51
2023/10/08 00:06:13;;;;;;;;;;;;;;;15.68;100.00;102161.19;5113945;28;20324;-51
2023/10/08 00:08:38;;;;;;;;;;;;;;;15.63;100.00;102167.97;5114694;28;20069;-51
2023/10/08 00:11:07;;;;;;;;;;;;;;;15.61;100.00;102154.06;5114464;28;19911;-51
2023/10/08 00:13:41;;;;;;;;;;;;;;;15.58;100.00;102153.94;5113648;28;19919;-52
2023/10/08 00:16:10;;;;;;;;;;;;;;;15.53;100.00;102151.22;5114623;28;20335;-51
2023/10/08 00:18:37;;;;;;;;;;;;;;;15.51;100.00;102152.88;5114495;28;19934;-51
2023/10/08 00:23:41;;;;;;;;;;;;;;;15.44;100.00;102161.31;5114478;28;19912;-51
2023/10/08 00:26:07;;;;;;;;;;;;;;;15.40;100.00;102160.38;5114650;28;19912;-51
2023/10/08 00:28:33;;;;;;;;;;;;;;;15.37;100.00;102175.84;5113420;28;20416;-51
2023/10/08 00:31:05;;;;;;;;;;;;;;;15.35;100.00;102166.25;5114582;28;19916;-51
2023/10/08 00:33:30;;;;;;;;;;;;;;;15.32;100.00;102172.22;5114068;28;19976;-51
2023/10/08 00:35:56;;;;;;;;;;;;;;;15.29;100.00;102173.00;5112780;28;20003;-51
2023/10/08 00:38:21;;;;;;;;;;;;;;;15.25;100.00;102171.16;5114137;28;20330;-51
2023/10/08 00:40:50;;;;;;;;;;;;;;;15.22;100.00;102163.28;5114007;28;19992;-50
2023/10/08 00:43:36;;;;;;;;;;;;;;;15.15;100.00;102172.56;5113865;28;19994;-51
2023/10/08 00:46:18;;;;;;;;;;;;;;;15.12;100.00;102175.06;5114079;28;19956;-51
2023/10/08 00:48:44;;;;;;;;;;;;;;;15.06;100.00;102172.28;5113428;28;19919;-52
2023/10/08 00:51:32;;;;;;;;;;;;;;;14.99;100.00;102167.72;5114215;28;19954;-51
2023/10/08 00:54:05;;;;;;;;;;;;;;;14.94;100.00;102187.47;5113913;28;20359;-51
2023/10/08 00:59:33;;;;;;;;;;;;;;;14.78;100.00;102179.16;5079232;28;19972;-51
2023/10/08 01:02:04;;;;;;;;;;;;;;;14.74;100.00;102172.09;5113181;28;20010;-49
2023/10/08 01:04:33;;;;;;;;;;;;;;;14.67;100.00;102170.13;5113638;28;20002;-51
2023/10/08 01:07:00;;;;;;;;;;;;;;;14.60;100.00;102176.78;5113770;28;19915;-47
2023/10/08 01:09:35;;;;;;;;;;;;;;;14.56;100.00;102161.06;5112561;28;19925;-51
2023/10/08 01:12:23;;;;;;;;;;;;;;;14.52;100.00;102159.19;5113648;28;20339;-50
2023/10/08 01:14:49;;;;;;;;;;;;;;;14.47;100.00;102165.13;5113917;28;19915;-50
2023/10/08 01:17:16;;;;;;;;;;;;;;;14.46;100.00;102163.34;5112703;28;19919;-49
2023/10/08 01:19:50;;;;;;;;;;;;;;;14.44;100.00;102167.59;5113614;28;19919;-51
2023/10/08 01:22:21;;;;;;;;;;;;;;;14.39;100.00;102153.56;5113623;28;19911;-51
2023/10/08 01:24:49;;;;;;;;;;;;;;;14.37;100.00;102159.53;5113026;28;19907;-51
2023/10/08 01:27:24;;;;;;;;;;;;;;;14.34;100.00;102155.13;5113329;28;19919;-51
2023/10/08 01:29:52;;;;;;;;;;;;;;;14.30;100.00;102146.34;5113545;28;19911;-51
2023/10/08 01:32:19;;;;;;;;;;;;;;;14.27;100.00;102135.88;5112654;28;19912;-50
2023/10/08 01:34:47;;;;;;;;;;;;;;;14.25;100.00;102132.34;5113555;28;20287;-51
2023/10/08 01:37:18;;;;;;;;;;;;;;;14.25;100.00;102128.88;5112488;28;19912;-51
2023/10/08 01:39:50;;;;;;;;;;;;;;;14.25;100.00;102134.94;5113688;28;19912;-51
2023/10/08 01:42:17;;;;;;;;;;;;;;;14.24;100.00;102134.88;5113212;28;19919;-51
2023/10/08 01:44:49;;;;;;;;;;;;;;;14.27;100.00;102135.00;5112660;28;19922;-51
2023/10/08 01:47:16;;;;;;;;;;;;;;;14.28;100.00;102144.53;5116893;28;19916;-51
2023/10/08 01:49:43;;;;;;;;;;;;;;;14.28;100.00;102142.84;5117600;28;19912;-51
2023/10/08 01:52:13;;;;;;;;;;;;;;;14.28;100.00;102142.84;5116457;28;19945;-51
2023/10/08 01:54:38;;;;;;;;;;;;;;;14.28;100.00;102155.81;5117516;28;19919;-51
2023/10/08 01:57:04;;;;;;;;;;;;;;;14.28;100.00;102165.28;5117252;28;19911;-50
2023/10/08 01:59:31;;;;;;;;;;;;;;;14.28;100.00;102162.69;5116323;28;19916;-51
2023/10/08 02:01:57;;;;;;;;;;;;;;;14.28;100.00;102165.28;5117268;28;19911;-51
2023/10/08 02:04:22;;;;;;;;;;;;;;;14.28;100.00;102173.06;5117016;28;19911;-51
2023/10/08 02:06:47;;;;;;;;;;;;;;;14.25;100.00;102165.19;5116608;28;19920;-51
2023/10/08 02:09:13;;;;;;;;;;;;;;;14.24;100.00;102174.69;5116730;28;19915;-51
2023/10/08 02:11:43;;;;;;;;;;;;;;;14.22;100.00;102168.53;5116875;28;19915;-51
2023/10/08 02:14:08;;;;;;;;;;;;;;;14.21;100.00;102169.38;5116281;28;19935;-50
2023/10/08 02:16:33;;;;;;;;;;;;;;;14.20;100.00;102167.59;5116514;28;20286;-50
2023/10/08 02:18:59;;;;;;;;;;;;;;;14.19;100.00;102165.84;5116936;28;19922;-51
2023/10/08 02:21:25;;;;;;;;;;;;;;;14.18;100.00;102158.91;5115776;28;19919;-51
2023/10/08 02:23:52;;;;;;;;;;;;;;;14.14;100.00;102157.91;5116874;28;19919;-50
2023/10/08 02:26:19;;;;;;;;;;;;;;;14.14;100.00;102167.41;5115973;28;19911;-51
2023/10/08 02:28:44;;;;;;;;;;;;;;;14.13;100.00;102169.09;5117028;28;19912;-51
2023/10/08 02:31:09;;;;;;;;;;;;;;;14.13;100.00;102170.81;5116874;28;20010;-51
2023/10/08 02:33:34;;;;;;;;;;;;;;;14.11;100.00;102168.16;5115554;28;19998;-50
2023/10/08 02:36:04;;;;;;;;;;;;;;;14.11;100.00;102169.84;5116583;28;19912;-51
2023/10/08 02:38:29;;;;;;;;;;;;;;;14.08;100.00;102168.03;5116246;28;19915;-51
2023/10/08 02:40:56;;;;;;;;;;;;;;;14.06;100.00;102167.13;5115611;28;20026;-50
2023/10/08 02:43:21;;;;;;;;;;;;;;;14.04;100.00;102176.53;5116281;28;19911;-51
2023/10/08 02:45:49;;;;;;;;;;;;;;;14.03;100.00;102185.13;5116604;28;19915;-51
2023/10/08 02:48:16;;;;;;;;;;;;;;;14.02;100.00;102188.56;5115311;28;19912;-58
2023/10/08 02:50:47;;;;;;;;;;;;;;;14.01;100.00;102194.59;5116243;28;19964;-51
2023/10/08 02:53:17;;;;;;;;;;;;;;;14.01;100.00;102207.53;5115769;28;20256;-51
2023/10/08 02:55:43;;;;;;;;;;;;;;;13.99;100.00;102214.38;5115736;28;19955;-50
2023/10/08 02:58:14;;;;;;;;;;;;;;;13.97;100.00;102195.31;5115182;28;19964;-50
2023/10/08 03:00:40;;;;;;;;;;;;;;;13.94;100.00;102189.97;5116217;28;20015;-51
2023/10/08 03:03:15;;;;;;;;;;;;;;;13.94;100.00;102195.16;5115193;28;19912;-51
2023/10/08 03:05:40;;;;;;;;;;;;;;;13.94;100.00;102189.97;5116007;28;19919;-51
2023/10/08 03:08:10;;;;;;;;;;;;;;;13.93;100.00;102188.22;5115859;28;19930;-51
2023/10/08 03:10:37;;;;;;;;;;;;;;;13.91;100.00;102189.88;5115172;28;19911;-51
2023/10/08 03:13:06;;;;;;;;;;;;;;;13.90;100.00;102182.94;5116101;28;19965;-51
2023/10/08 03:15:39;;;;;;;;;;;;;;;13.87;100.00;102194.06;5115251;28;19915;-51
2023/10/08 03:18:10;;;;;;;;;;;;;;;13.85;100.00;102190.50;5115879;28;19912;-51
2023/10/08 03:20:39;;;;;;;;;;;;;;;13.86;100.00;102196.59;5115628;28;19911;-51
2023/10/08 03:23:23;;;;;;;;;;;;;;;13.82;100.00;102198.19;5114962;28;19955;-51
2023/10/08 03:25:57;;;;;;;;;;;;;;;13.78;100.00;102194.59;5115780;28;19972;-50
2023/10/08 03:28:24;;;;;;;;;;;;;;;13.76;100.00;102211.81;5115327;28;19994;-51
2023/10/08 03:30:50;;;;;;;;;;;;;;;13.74;100.00;102203.06;5114724;28;19922;-51
2023/10/08 03:33:26;;;;;;;;;;;;;;;13.70;100.00;102198.59;5115375;28;19911;-51
2023/10/08 03:35:52;;;;;;;;;;;;;;;13.70;100.00;102195.13;5115361;28;20367;-51
2023/10/08 03:38:21;;;;;;;;;;;;;;;13.68;100.00;102197.66;5114339;28;19920;-51
2023/10/08 03:40:48;;;;;;;;;;;;;;;13.67;100.00;102201.06;5115238;28;20377;-52
2023/10/08 03:43:24;;;;;;;;;;;;;;;13.66;100.00;102204.50;5114993;28;19918;-51
2023/10/08 03:45:53;;;;;;;;;;;;;;;13.64;100.00;102209.59;5114696;28;19920;-51
2023/10/08 03:48:22;;;;;;;;;;;;;;;13.63;100.00;102209.53;5115097;28;19943;-52
2023/10/08 03:50:56;;;;;;;;;;;;;;;13.62;100.00;102202.59;5114484;28;19915;-51
2023/10/08 03:53:22;;;;;;;;;;;;;;;13.59;100.00;102202.47;5114806;28;20359;-51
2023/10/08 03:55:51;;;;;;;;;;;;;;;13.56;100.00;102213.59;5114995;28;19912;-51
2023/10/08 03:58:29;;;;;;;;;;;;;;;13.55;100.00;102216.16;5113753;28;19915;-51
2023/10/08 04:01:08;;;;;;;;;;;;;;;13.56;100.00;102217.91;5115102;28;19965;-52
2023/10/08 04:06:38;;;;;;;;;;;;;;;13.52;100.00;102200.47;5100460;28;19922;-52
2023/10/08 04:11:56;;;;;;;;;;;;;;;13.49;100.00;102196.94;5114431;28;19987;-52
2023/10/08 04:14:24;;;;;;;;;;;;;;;13.50;100.00;102214.25;5114375;28;19998;-51
2023/10/08 04:16:51;;;;;;;;;;;;;;;13.50;100.00;102224.63;5114937;28;19915;-51
2023/10/08 04:19:18;;;;;;;;;;;;;;;13.49;100.00;102227.13;5113813;28;19912;-51
2023/10/08 04:21:43;;;;;;;;;;;;;;;13.50;100.00;102222.03;5114737;28;19912;-51
2023/10/08 04:24:08;;;;;;;;;;;;;;;13.48;100.00;102231.44;5114547;28;20029;-51
2023/10/08 04:26:34;;;;;;;;;;;;;;;13.49;100.00;102219.34;5113366;28;20278;-51
2023/10/08 04:29:06;;;;;;;;;;;;;;;13.47;100.00;102229.66;5114393;28;19949;-51
2023/10/08 04:31:43;;;;;;;;;;;;;;;13.47;100.00;102224.47;5114337;28;19915;-50
2023/10/08 04:34:22;;;;;;;;;;;;;;;13.45;100.00;102231.31;5113724;28;19911;-50
2023/10/08 04:36:54;;;;;;;;;;;;;;;13.45;100.00;102230.44;5114366;28;19919;-52
2023/10/08 04:39:32;;;;;;;;;;;;;;;13.42;100.00;102241.53;5114025;28;19916;-50
2023/10/08 04:42:13;;;;;;;;;;;;;;;13.41;100.00;102239.78;5113578;28;19919;-51
2023/10/08 04:44:39;;;;;;;;;;;;;;;13.38;100.00;102250.00;5114147;28;20019;-50
2023/10/08 04:47:04;;;;;;;;;;;;;;;13.38;100.00;102265.56;5113354;28;19965;-51
2023/10/08 04:49:32;;;;;;;;;;;;;;;13.36;100.00;102261.97;5113729;28;19919;-51
2023/10/08 04:51:58;;;;;;;;;;;;;;;13.33;100.00;102261.84;5113953;28;20349;-51
2023/10/08 04:54:29;;;;;;;;;;;;;;;13.30;100.00;102256.56;5112762;28;19912;-51
2023/10/08 04:56:57;;;;;;;;;;;;;;;13.27;100.00;102257.31;5113923;28;19912;-48
2023/10/08 04:59:22;;;;;;;;;;;;;;;13.24;100.00;102258.91;5113797;28;20321;-51
2023/10/08 05:01:47;;;;;;;;;;;;;;;13.21;100.00;102262.25;5113086;28;20314;-49
2023/10/08 05:04:23;;;;;;;;;;;;;;;13.18;100.00;102259.50;5113615;28;19912;-51
2023/10/08 05:07:01;;;;;;;;;;;;;;;13.16;100.00;102258.59;5114031;28;19939;-51
2023/10/08 05:09:39;;;;;;;;;;;;;;;13.14;100.00;102276.66;5112919;28;20006;-50
2023/10/08 05:15:09;;;;;;;;;;;;;;;13.05;100.00;102271.06;5113954;28;20381;-51
2023/10/08 05:17:46;;;;;;;;;;;;;;;12.99;100.00;102271.69;5113302;28;20011;-51
2023/10/08 05:20:29;;;;;;;;;;;;;;;12.96;100.00;102262.91;5114758;28;19995;-48
2023/10/08 05:23:20;;;;;;;;;;;;;;;12.93;100.00;102265.38;5119766;28;19915;-50
2023/10/08 05:26:09;;;;;;;;;;;;;;;12.94;100.00;102269.75;5120705;28;20045;-50
2023/10/08 05:28:36;;;;;;;;;;;;;;;12.93;100.00;102281.78;5120349;28;19968;-51
2023/10/08 05:33:59;;;;;;;;;;;;;;;12.91;100.00;102282.53;5120405;28;19918;-51
2023/10/08 05:36:35;;;;;;;;;;;;;;;12.90;100.00;102291.09;5119467;28;19916;-51
2023/10/08 05:39:00;;;;;;;;;;;;;;;12.90;100.00;102286.81;5120643;28;19934;-49
2023/10/08 05:41:38;;;;;;;;;;;;;;;12.92;100.00;102284.31;5120158;28;20347;-51
2023/10/08 05:44:24;;;;;;;;;;;;;;;12.89;100.00;102285.06;5119543;28;19915;-50
2023/10/08 05:49:38;;;;;;;;;;;;;;;12.91;100.00;102282.53;5119884;28;20278;-50
2023/10/08 05:57:14;;;;;;;;;;;;;;;12.90;100.00;102234.16;5120174;28;19918;-50
2023/10/08 06:00:17;;;;;;;;;;;;;;;12.92;100.00;102227.38;5119506;28;19915;-51
2023/10/08 06:10:56;;;;;;;;;;;;;;;12.97;100.00;102246.56;5119816;28;20328;-49
2023/10/08 06:13:16;;;;;;;;;;;;;;;13.00;100.00;102272.56;5115821;28;20026;-51
2023/10/08 06:16:05;;;;;;;;;;;;;;;13.01;100.00;102276.91;5120138;28;19911;-51
2023/10/08 06:18:31;;;;;;;;;;;;;;;13.00;100.00;102283.81;5119033;28;20286;-50
2023/10/08 06:21:08;;;;;;;;;;;;;;;12.99;100.00;102286.34;5120055;28;19912;-51
2023/10/08 06:23:35;;;;;;;;;;;;;;;12.99;100.00;102289.81;5119639;28;19971;-51
2023/10/08 06:26:05;;;;;;;;;;;;;;;12.97;100.00;102290.56;5118987;28;19918;-51
2023/10/08 06:28:30;;;;;;;;;;;;;;;12.96;100.00;102296.53;5119534;28;20329;-51
2023/10/08 06:30:56;;;;;;;;;;;;;;;12.95;100.00;102295.69;5119929;28;20393;-51
2023/10/08 06:33:22;;;;;;;;;;;;;;;12.95;100.00;102302.53;5114507;28;19908;-50
2023/10/08 06:36:02;;;;;;;;;;;;;;;12.94;100.00;102298.22;5116372;28;19964;-51
2023/10/08 06:38:30;;;;;;;;;;;;;;;12.93;100.00;102291.25;5116114;28;19970;-51
2023/10/08 06:40:58;;;;;;;;;;;;;;;12.92;100.00;102286.88;5115838;28;19911;-50
2023/10/08 06:43:25;;;;;;;;;;;;;;;12.95;100.00;102279.25;5116354;28;20015;-50
2023/10/08 06:45:53;;;;;;;;;;;;;;;12.98;100.00;102269.03;5116620;28;19991;-52
2023/10/08 06:48:23;;;;;;;;;;;;;;;13.03;100.00;102293.41;5115589;28;19963;-51
2023/10/08 06:50:49;;;;;;;;;;;;;;;13.07;100.00;102305.66;5116178;28;19912;-51
2023/10/08 06:53:14;;;;;;;;;;;;;;;13.10;100.00;102316.13;5116130;28;20015;-49
2023/10/08 06:55:40;;;;;;;;;;;;;;;13.12;100.00;102318.81;5115357;28;19916;-50
2023/10/08 06:58:05;;;;;;;;;;;;;;;13.11;100.00;102330.84;5115961;28;19940;-51
2023/10/08 07:01:38;;;;;;;;;;;;;;;13.09;100.00;102334.19;5115789;28;19915;-51
2023/10/08 07:03:26;;;;;;;;;;;;;;;13.10;100.00;102342.03;5101981;28;19914;-50
2023/10/08 07:05:54;;;;;;;;;;;;;;;13.13;100.00;102342.16;5115877;28;19912;-51
2023/10/08 07:08:26;;;;;;;;;;;;;;;13.20;100.00;102339.84;5114889;28;19908;-48
2023/10/08 07:10:53;;;;;;;;;;;;;;;13.30;100.00;102323.88;5115895;28;19918;-50
2023/10/08 07:13:19;;;;;;;;;;;;;;;13.42;100.00;102327.00;5115503;28;19907;-51
2023/10/08 07:15:45;;;;;;;;;;;;;;;13.57;100.00;102336.22;5114915;28;20278;-51
2023/10/08 07:18:12;;;;;;;;;;;;;;;13.70;100.00;102329.84;5115974;28;20366;-48
2023/10/08 07:20:39;;;;;;;;;;;;;;;13.82;100.00;102344.19;5115815;28;19918;-51
2023/10/08 07:23:09;;;;;;;;;;;;;;;13.96;100.00;102338.69;5114940;28;19918;-51
2023/10/08 07:25:37;;;;;;;;;;;;;;;14.09;100.00;102338.31;5115367;28;19947;-51
2023/10/08 07:28:05;;;;;;;;;;;;;;;14.20;100.00;102341.31;5115520;28;19912;-51
2023/10/08 07:30:32;;;;;;;;;;;;;;;14.29;100.00;102340.78;5114343;28;19922;-51
2023/10/08 07:32:58;;;;;;;;;;;;;;;14.37;100.00;102344.59;5115630;28;19958;-51
2023/10/08 07:35:25;;;;;;;;;;;;;;;14.49;100.00;102347.63;5115254;28;19911;-51
2023/10/08 07:37:53;;;;;;;;;;;;;;;14.60;100.00;102348.03;5114647;28;20374;-50
2023/10/08 07:40:20;;;;;;;;;;;;;;;14.72;100.00;102358.03;5114865;28;20397;-51
2023/10/08 07:42:46;;;;;;;;;;;;;;;14.82;100.00;102360.13;5115080;28;19955;-47
2023/10/08 07:45:17;;;;;;;;;;;;;;;14.90;100.00;102357.81;5114448;28;19958;-51
2023/10/08 07:47:43;;;;;;;;;;;;;;;15.01;100.00;102355.56;5115473;28;19918;-52
2023/10/08 07:50:12;;;;;;;;;;;;;;;15.11;100.00;102352.47;5114427;28;19916;-51
2023/10/08 07:52:37;;;;;;;;;;;;;;;15.22;100.00;102359.75;5115305;28;19919;-50
2023/10/08 07:55:04;;;;;;;;;;;;;;;15.33;100.00;102362.75;5114928;28;19911;-50
2023/10/08 07:57:30;;;;;;;;;;;;;;;15.42;100.00;102356.13;5113871;28;19915;-51
2023/10/08 08:00:01;;;;;;;;;;;;;;;15.52;100.00;102356.44;5115174;28;19911;-51
2023/10/08 08:02:27;;;;;;;;;;;;;;;15.60;100.00;102363.66;5114465;28;20347;-51
2023/10/08 08:04:52;;;;;;;;;;;;;;;15.63;100.00;102381.06;5114170;28;20002;-50
2023/10/08 08:07:18;;;;;;;;;;;;;;;15.58;100.00;102385.22;5114432;28;19918;-51
2023/10/08 08:09:59;;;;;;;;;;;;;;;15.51;100.00;102393.66;5114582;28;19912;-51
2023/10/08 08:12:25;;;;;;;;;;;;;;;15.44;100.00;102402.94;5113731;28;19918;-51
2023/10/08 08:14:54;;;;;;;;;;;;;;;15.40;100.00;102404.56;5114701;28;19916;-51
2023/10/08 08:17:19;;;;;;;;;;;;;;;15.36;100.00;102397.47;5114423;28;19911;-51
2023/10/08 08:19:47;;;;;;;;;;;;;;;15.39;100.00;102407.09;5113808;28;19914;-50
2023/10/08 08:22:15;;;;;;;;;;;;;;;15.42;100.00;102400.28;5114342;28;19911;-51
2023/10/08 08:24:44;;;;;;;;;;;;;;;15.44;100.00;102411.63;5114551;28;20002;-51
2023/10/08 08:27:23;;;;;;;;;;;;;;;15.53;100.00;102408.47;5113813;28;19915;-51
2023/10/08 08:29:55;;;;;;;;;;;;;;;15.68;100.00;102425.41;5114351;28;19965;-51
2023/10/08 08:32:21;;;;;;;;;;;;;;;15.79;100.00;102419.75;5113195;28;19919;-51
2023/10/08 08:34:50;;;;;;;;;;;;;;;15.91;100.00;102431.41;5114175;28;19912;-51
2023/10/08 08:37:15;;;;;;;;;;;;;;;16.01;100.00;102429.97;5113945;28;19912;-51
2023/10/08 08:39:41;;;;;;;;;;;;;;;16.12;100.00;102434.69;5113543;28;20049;-51
2023/10/08 08:42:07;;;;;;;;;;;;;;;16.22;100.00;102425.47;5114240;28;19956;-51
2023/10/08 08:44:36;;;;;;;;;;;;;;;16.33;100.00;102422.31;5114095;28;19911;-51
2023/10/08 08:47:04;;;;;;;;;;;;;;;16.50;100.00;102431.56;5113283;28;19917;-51
2023/10/08 08:49:32;;;;;;;;;;;;;;;16.68;100.00;102431.22;5113628;28;19912;-51
2023/10/08 08:52:00;;;;;;;;;;;;;;;16.90;100.00;102429.22;5114200;28;19973;-51
2023/10/08 08:54:26;;;;;;;;;;;;;;;17.09;100.00;102428.97;5112648;28;19915;-51
2023/10/08 08:56:53;;;;;;;;;;;;;;;17.27;100.00;102425.06;5113448;28;19912;-51
2023/10/08 08:59:20;;;;;;;;;;;;;;;17.40;100.00;102427.19;5113589;28;19916;-52
2023/10/08 09:01:47;;;;;;;;;;;;;;;17.57;100.00;102426.72;5113096;28;20006;-51
2023/10/08 09:04:16;;;;;;;;;;;;;;;17.70;100.00;102436.66;5113450;28;19912;-51
2023/10/08 09:06:41;;;;;;;;;;;;;;;17.85;100.00;102443.09;5113886;28;19918;-51
2023/10/08 09:09:22;;;;;;;;;;;;;;;17.93;100.00;102441.56;5113204;28;19912;-52
2023/10/08 09:11:55;;;;;;;;;;;;;;;17.99;100.00;102439.13;5113775;28;20336;-51
2023/10/08 09:14:25;;;;;;;;;;;;;;;18.05;100.00;102441.88;5112657;28;19916;-51
2023/10/08 09:16:50;;;;;;;;;;;;;;;18.12;100.00;102447.25;5114067;28;19912;-51
2023/10/08 09:19:19;;;;;;;;;;;;;;;18.14;100.00;102446.44;5113537;28;19912;-52
2023/10/08 09:22:01;;;;;;;;;;;;;;;18.17;100.00;102448.25;5113036;28;19912;-51
2023/10/08 09:24:26;;;;;;;;;;;;;;;18.31;100.00;102449.44;5113413;28;19918;-52
2023/10/08 09:26:52;;;;;;;;;;;;;;;18.41;100.00;102461.88;5113636;28;19912;-52
2023/10/08 09:29:17;;;;;;;;;;;;;;;18.49;100.00;102451.59;5112535;28;19916;-51
2023/10/08 09:31:48;;;;;;;;;;;;;;;18.51;100.00;102462.94;5113619;28;20375;-51
2023/10/08 09:34:16;;;;;;;;;;;;;;;18.55;100.00;102456.06;5113189;28;19919;-51
2023/10/08 09:36:42;;;;;;;;;;;;;;;18.56;100.00;102456.09;5112761;28;19912;-51
2023/10/08 09:39:07;;;;;;;;;;;;;;;18.55;100.00;102459.56;5113606;28;19919;-51
2023/10/08 09:41:33;;;;;;;;;;;;;;;18.51;100.00;102454.22;5113132;28;19912;-51
2023/10/08 09:43:58;;;;;;;;;;;;;;;18.39;100.00;102468.75;5112641;28;19934;-50
2023/10/08 09:46:28;;;;;;;;;;;;;;;18.29;100.00;102463.31;5113297;28;20355;-51
2023/10/08 09:48:56;;;;;;;;;;;;;;;18.25;100.00;102454.53;5113432;28;19934;-51
2023/10/08 09:51:21;;;;;;;;;;;;;;;18.28;100.00;102449.34;5112291;28;19912;-50
2023/10/08 09:53:49;;;;;;;;;;;;;;;18.30;100.00;102442.47;5113240;28;19980;-51
2023/10/08 09:56:18;;;;;;;;;;;;;;;18.31;100.00;102439.00;5112872;28;19937;-52
2023/10/08 09:58:43;;;;;;;;;;;;;;;18.36;100.00;102437.38;5112322;28;19923;-51
2023/10/08 10:01:09;;;;;;;;;;;;;;;18.39;100.00;102432.22;5113496;28;19912;-51
2023/10/08 10:03:36;;;;;;;;;;;;;;;18.46;100.00;102435.84;5112313;28;20010;-51
2023/10/08 10:06:01;;;;;;;;;;;;;;;18.54;100.00;102429.09;5113299;28;19916;-51
2023/10/08 10:08:28;;;;;;;;;;;;;;;18.53;100.00;102429.91;5116685;28;19918;-51
2023/10/08 10:10:59;;;;;;;;;;;;;;;18.59;100.00;102424.84;5116134;28;19999;-52
2023/10/08 10:13:29;;;;;;;;;;;;;;;18.72;100.00;102425.97;5116903;28;19915;-51
2023/10/08 10:15:54;;;;;;;;;;;;;;;18.88;100.00;102441.97;5117156;28;19947;-50
2023/10/08 10:18:28;;;;;;;;;;;;;;;18.93;100.00;102448.22;5115941;28;20402;-51
2023/10/08 10:21:20;;;;;;;;;;;;;;;18.92;100.00;102451.66;5116906;28;19939;-51
2023/10/08 10:23:46;;;;;;;;;;;;;;;18.90;100.00;102454.25;5113575;28;19918;-52
2023/10/08 10:26:25;;;;;;;;;;;;;;;18.85;100.00;102447.13;5115881;28;19911;-52
2023/10/08 10:29:09;;;;;;;;;;;;;;;18.67;100.00;102442.38;5116864;28;19984;-51
2023/10/08 10:31:36;;;;;;;;;;;;;;;18.56;100.00;102429.09;5116041;28;19957;-48
2023/10/08 10:34:09;;;;;;;;;;;;;;;18.50;100.00;102436.81;5116791;28;19980;-51
2023/10/08 10:36:34;;;;;;;;;;;;;;;18.49;100.00;102433.31;5116166;28;19912;-51
2023/10/08 10:39:00;;;;;;;;;;;;;;;18.51;100.00;102430.75;5115842;28;19918;-51
2023/10/08 10:41:27;;;;;;;;;;;;;;;18.53;100.00;102439.50;5116224;28;20287;-51
2023/10/08 10:43:52;;;;;;;;;;;;;;;18.49;100.00;102448.09;5116294;28;19911;-51
2023/10/08 10:46:30;;;;;;;;;;;;;;;18.48;100.00;102448.97;5115161;28;19911;-51
2023/10/08 10:49:17;;;;;;;;;;;;;;;18.46;100.00;102456.72;5116237;28;20420;-51
2023/10/08 10:51:42;;;;;;;;;;;;;;;18.42;100.00;102450.59;5116435;28;19918;-49
2023/10/08 10:54:08;;;;;;;;;;;;;;;18.50;100.00;102457.69;5115496;28;19911;-51
2023/10/08 10:56:40;;;;;;;;;;;;;;;18.51;100.00;102462.06;5115803;28;20385;-51
2023/10/08 10:59:15;;;;;;;;;;;;;;;18.39;100.00;102453.09;5115947;28;20006;-52
2023/10/08 11:01:52;;;;;;;;;;;;;;;18.19;100.00;102456.97;5115179;28;19916;-51
2023/10/08 11:04:18;;;;;;;;;;;;;;;17.94;100.00;102472.91;5115620;28;20379;-51
2023/10/08 11:06:44;;;;;;;;;;;;;;;17.76;100.00;102470.69;5115776;28;19911;-50
2023/10/08 11:09:15;;;;;;;;;;;;;;;17.68;100.00;102467.00;5115458;28;20065;-52
2023/10/08 11:11:43;;;;;;;;;;;;;;;17.60;100.00;102461.59;5116040;28;19912;-49
2023/10/08 11:14:15;;;;;;;;;;;;;;;17.56;100.00;102462.34;5115201;28;19919;-51
2023/10/08 11:16:42;;;;;;;;;;;;;;;17.48;100.00;102460.38;5115922;28;19915;-51
2023/10/08 11:19:08;;;;;;;;;;;;;;;17.42;100.00;102459.38;5115129;28;20425;-51
2023/10/08 11:21:47;;;;;;;;;;;;;;;17.37;100.00;102466.19;5114626;28;20320;-51
2023/10/08 11:24:24;;;;;;;;;;;;;;;17.37;100.00;102462.72;5115509;28;19912;-51
2023/10/08 11:27:06;;;;;;;;;;;;;;;17.49;100.00;102462.16;5115737;28;19912;-51
2023/10/08 11:29:31;;;;;;;;;;;;;;;17.63;100.00;102449.50;5114435;28;20453;-51
2023/10/08 11:31:56;;;;;;;;;;;;;;;17.73;100.00;102446.28;5115461;28;19950;-51
2023/10/08 11:34:24;;;;;;;;;;;;;;;17.78;100.00;102442.94;5115245;28;19915;-51
2023/10/08 11:36:55;;;;;;;;;;;;;;;17.99;100.00;102446.09;5114786;28;19912;-52
2023/10/08 11:39:30;;;;;;;;;;;;;;;18.14;100.00;102440.31;5115438;28;19916;-51
2023/10/08 11:41:55;;;;;;;;;;;;;;;17.98;100.00;102439.97;5114925;28;19964;-49
2023/10/08 11:44:23;;;;;;;;;;;;;;;17.87;100.00;102439.69;5114790;28;19919;-51
2023/10/08 11:46:51;;;;;;;;;;;;;;;17.86;100.00;102442.25;5115185;28;20010;-50
2023/10/08 11:49:25;;;;;;;;;;;;;;;17.89;100.00;102439.72;5114254;28;20026;-51
2023/10/08 11:51:52;;;;;;;;;;;;;;;17.94;100.00;102438.13;5115232;28;19916;-50
2023/10/08 11:54:17;;;;;;;;;;;;;;;17.88;100.00;102437.94;5114592;28;20274;-50
2023/10/08 11:56:42;;;;;;;;;;;;;;;17.69;100.00;102437.47;5114233;28;20370;-52
2023/10/08 11:59:11;;;;;;;;;;;;;;;17.65;100.00;102430.44;5114629;28;20278;-51
2023/10/08 12:01:37;;;;;;;;;;;;;;;17.61;100.00;102421.66;5114992;28;19919;-51
2023/10/08 12:04:03;;;;;;;;;;;;;;;17.61;100.00;102420.75;5114181;28;19918;-51
2023/10/08 12:06:32;;;;;;;;;;;;;;;17.57;100.00;102414.59;5114635;28;19912;-51
2023/10/08 12:09:10;;;;;;;;;;;;;;;17.41;100.00;102409.81;5114872;28;19934;-51
2023/10/08 12:11:35;;;;;;;;;;;;;;;17.28;100.00;102408.59;5113558;28;20370;-51
2023/10/08 12:14:00;;;;;;;;;;;;;;;17.26;100.00;102410.28;5114926;28;19911;-49
2023/10/08 12:16:29;;;;;;;;;;;;;;;17.28;100.00;102412.09;5114444;28;19911;-51
2023/10/08 12:18:58;;;;;;;;;;;;;;;17.32;100.00;102400.03;5114065;28;19946;-51
2023/10/08 12:21:31;;;;;;;;;;;;;;;17.44;100.00;102405.56;5114298;28;19919;-50
2023/10/08 12:23:59;;;;;;;;;;;;;;;17.55;100.00;102403.22;5114367;28;20353;-51
2023/10/08 12:26:25;;;;;;;;;;;;;;;17.65;100.00;102404.38;5113325;28;19912;-51
2023/10/08 12:28:50;;;;;;;;;;;;;;;17.73;100.00;102400.22;5114283;28;19915;-51
2023/10/08 12:31:16;;;;;;;;;;;;;;;17.91;100.00;102401.50;5112426;28;19995;-51
2023/10/08 12:33:43;;;;;;;;;;;;;;;18.09;100.00;102404.59;5114343;28;20282;-50
2023/10/08 12:36:11;;;;;;;;;;;;;;;18.13;100.00;102394.19;5114161;28;19958;-51
2023/10/08 12:38:37;;;;;;;;;;;;;;;18.25;100.00;102392.75;5113433;28;19911;-50
2023/10/08 12:41:11;;;;;;;;;;;;;;;18.45;100.00;102394.03;5114521;28;19912;-51
2023/10/08 12:43:38;;;;;;;;;;;;;;;18.64;100.00;102393.59;5114109;28;20286;-51
2023/10/08 12:46:04;;;;;;;;;;;;;;;18.75;100.00;102393.81;5113416;28;19987;-51
2023/10/08 12:48:29;;;;;;;;;;;;;;;18.83;100.00;102396.59;5113677;28;20353;-50
2023/10/08 12:50:57;;;;;;;;;;;;;;;18.82;100.00;102389.59;5113980;28;19916;-51
2023/10/08 12:53:39;;;;;;;;;;;;;;;18.78;100.00;102388.66;5112785;28;20006;-52
2023/10/08 12:56:14;;;;;;;;;;;;;;;18.78;100.00;102378.19;5114107;28;19911;-51
2023/10/08 12:58:41;;;;;;;;;;;;;;;18.76;100.00;102383.41;5113896;28;19922;-51
2023/10/08 13:01:14;;;;;;;;;;;;;;;18.68;100.00;102376.25;5113143;28;19912;-51
2023/10/08 13:03:42;;;;;;;;;;;;;;;18.54;100.00;102371.66;5113800;28;19912;-51
2023/10/08 13:06:14;;;;;;;;;;;;;;;18.53;100.00;102366.41;5114006;28;19912;-51
2023/10/08 13:08:40;;;;;;;;;;;;;;;18.60;100.00;102363.03;5113013;28;20390;-51
2023/10/08 13:11:05;;;;;;;;;;;;;;;18.67;100.00;102353.59;5113825;28;19912;-51
2023/10/08 13:13:31;;;;;;;;;;;;;;;18.71;100.00;102356.31;5112607;28;20290;-51